^^
Grace C. Lehan Memorial Weather Station Historical Data
Daily Summary for June 28, 2021 Units:  English    Metric   Both
Daily Weekly Monthly Yearly
  High: Low: Average:
Temperature: 33.5 °F 16.9 °F 27 °F
Dew Point: 25.9 °F 5.4 °F 18.4 °F
Humidity: 85% 56% 70%
Wind Speed: 14mph 0mph 4.9mph
Wind Gust: 26mph - -
Wind- - NW
Pressure: 30.09 in 29.96 in -
Precipitation: 0.00 in    
 
 
Tabular Data for June 28, 2021
Time Temperature Dew Point Pressure Wind Wind Speed Wind Gust Humidity Rainfall Rate (Hourly) solar
00:04 30.8 °F 25.9 °F 30.05 in NNW 0.7 mph 10 mph 82% 0.00 in 0 W/m2
00:09 30.8 °F 25.9 °F 30.05 in NNW 2 mph 7 mph 82% 0.00 in 0 W/m2
00:14 30.7 °F 25.9 °F 30.05 in NW 1.1 mph 7 mph 82% 0.00 in 0 W/m2
00:19 30.7 °F 25.9 °F 30.05 in NW 2.2 mph 8 mph 82% 0.00 in 0 W/m2
00:24 30.7 °F 25.8 °F 30.05 in NNW 2.1 mph 8 mph 81.7% 0.00 in 0 W/m2
00:29 30.7 °F 25.8 °F 30.05 in NW 1.8 mph 8 mph 81.9% 0.00 in 0 W/m2
00:34 30.7 °F 25.7 °F 30.04 in NW 2.7 mph 9 mph 81.4% 0.00 in 0 W/m2
00:39 30.7 °F 25.6 °F 30.04 in NW 1.8 mph 9 mph 81.3% 0.00 in 0 W/m2
00:44 30.6 °F 25.8 °F 30.04 in NW 1.3 mph 9 mph 82% 0.00 in 0 W/m2
00:49 30.6 °F 25.7 °F 30.04 in NNW 1.8 mph 9 mph 81.7% 0.00 in 0 W/m2
00:54 30.6 °F 25.5 °F 30.04 in NNW 0.4 mph 9 mph 81% 0.00 in 0 W/m2
00:59 30.6 °F 25.5 °F 30.04 in Calm   9 mph 81.2% 0.00 in 0 W/m2
01:04 30.6 °F 25.8 °F 30.04 in NNW 1.5 mph 9 mph 82% 0.00 in 0 W/m2
01:09 30.6 °F 25.8 °F 30.04 in NNW 0.4 mph 5 mph 82% 0.00 in 0 W/m2
01:14 30.6 °F 25.7 °F 30.04 in North 1.9 mph 5 mph 81.8% 0.00 in 0 W/m2
01:19 30.5 °F 25.4 °F 30.03 in North 0.1 mph 5 mph 81% 0.00 in 0 W/m2
01:24 30.5 °F 25.4 °F 30.04 in North 0.4 mph 5 mph 81% 0.00 in 0 W/m2
01:29 30.5 °F 25.4 °F 30.03 in Calm   5 mph 81% 0.00 in 0 W/m2
01:34 30.5 °F 25.5 °F 30.03 in North 0.5 mph 5 mph 81.5% 0.00 in 0 W/m2
01:39 30.5 °F 25.7 °F 30.03 in Calm   3 mph 82% 0.00 in 0 W/m2
01:44 30.4 °F 25.6 °F 30.03 in North 0.3 mph 3 mph 82% 0.00 in 0 W/m2
01:49 30.4 °F 25.6 °F 30.04 in Calm   3 mph 82% 0.00 in 0 W/m2
01:54 30.4 °F 25.5 °F 30.03 in Calm   3 mph 82% 0.00 in 0 W/m2
01:59 30.3 °F 25.5 °F 30.03 in Calm   3 mph 82% 0.00 in 0 W/m2
02:04 30.3 °F 25.5 °F 30.03 in Calm   3 mph 82% 0.00 in 0 W/m2
02:09 30.3 °F 25.5 °F 30.03 in Calm     82% 0.00 in 0 W/m2
02:14 30.3 °F 25.5 °F 30.03 in Calm     82% 0.00 in 0 W/m2
02:19 30.3 °F 25.5 °F 30.03 in North 0.1 mph 2 mph 82% 0.00 in 0 W/m2
02:24 30.3 °F 25.5 °F 30.02 in North 0.3 mph 3 mph 82% 0.00 in 0 W/m2
02:29 30.2 °F 25.4 °F 30.03 in North 0.2 mph 3 mph 82% 0.00 in 0 W/m2
02:34 30.2 °F 25.4 °F 30.03 in Calm   3 mph 82% 0.00 in 0 W/m2
02:39 30.1 °F 25.3 °F 30.02 in North 0.1 mph 2 mph 82% 0.00 in 0 W/m2
02:44 30 °F 25.2 °F 30.02 in North 0.1 mph 2 mph 82% 0.00 in 0 W/m2
02:49 29.9 °F 25.1 °F 30.02 in North 0.4 mph 2 mph 82% 0.00 in 0 W/m2
02:54 29.8 °F 25 °F 30.02 in Calm   2 mph 82% 0.00 in 0 W/m2
02:59 29.7 °F 24.9 °F 30.01 in Calm   2 mph 82% 0.00 in 0 W/m2
03:04 29.6 °F 24.7 °F 30.01 in Calm   2 mph 82% 0.00 in 0 W/m2
03:09 29.4 °F 24.6 °F 30.01 in Calm     82% 0.00 in 0 W/m2
03:14 29.2 °F 24.4 °F 30.00 in North 0.1 mph 2 mph 82% 0.00 in 0 W/m2
03:19 29 °F 24.4 °F 30.01 in Calm   2 mph 82.5% 0.00 in 0 W/m2
03:24 28.9 °F 24.4 °F 30.01 in North 0.1 mph 2 mph 83% 0.00 in 0 W/m2
03:29 28.7 °F 24.2 °F 30.01 in Calm   2 mph 83% 0.00 in 0 W/m2
03:34 28.5 °F 24 °F 30.01 in Calm   2 mph 83% 0.00 in 0 W/m2
03:39 28.4 °F 23.9 °F 30.01 in Calm     83% 0.00 in 0 W/m2
03:44 28.3 °F 23.8 °F 30.02 in Calm     83% 0.00 in 0 W/m2
03:49 28.1 °F 23.9 °F 30.02 in Calm     84% 0.00 in 0 W/m2
03:54 27.9 °F 23.7 °F 30.01 in North 0.2 mph 2 mph 84% 0.00 in 0 W/m2
03:59 27.8 °F 23.6 °F 30.01 in Calm   2 mph 84% 0.00 in 0 W/m2
04:04 27.7 °F 23.7 °F 30.01 in Calm   2 mph 84.7% 0.00 in 0 W/m2
04:09 27.6 °F 23.7 °F 30.01 in North 0.1 mph 3 mph 85% 0.00 in 0 W/m2
04:14 27.5 °F 23.6 °F 30.01 in North 0.9 mph 4 mph 85% 0.00 in 0 W/m2
04:19 27.5 °F 23.6 °F 30.00 in North 1 mph 4 mph 85% 0.00 in 0 W/m2
04:24 27.5 °F 23.6 °F 30.00 in NNW 1.1 mph 6 mph 85% 0.00 in 0 W/m2
04:29 27.5 °F 23.6 °F 30.00 in NNW 0.7 mph 6 mph 85% 0.00 in 0 W/m2
04:34 27.5 °F 23.6 °F 30.00 in NNW 1.2 mph 9 mph 85% 0.00 in 0 W/m2
04:39 27.5 °F 23.6 °F 29.99 in NW 2 mph 9 mph 85% 0.00 in 0 W/m2
04:44 27.6 °F 23.7 °F 29.99 in NNW 2.7 mph 11 mph 85% 0.00 in 0 W/m2
04:49 27.7 °F 23.7 °F 29.99 in NNW 2.3 mph 11 mph 84.5% 0.00 in 0 W/m2
04:54 27.8 °F 23.6 °F 29.99 in NNW 1.2 mph 11 mph 84% 0.00 in 0 W/m2
04:59 27.9 °F 23.7 °F 29.99 in NNW 3.4 mph 11 mph 84% 0.00 in 0 W/m2
05:04 27.9 °F 23.7 °F 29.98 in North 1.5 mph 11 mph 84% 0.00 in 0 W/m2
05:09 27.9 °F 23.7 °F 29.99 in NNW 1.5 mph 7 mph 84% 0.00 in 0 W/m2
05:14 27.9 °F 23.7 °F 29.99 in NNW 1.8 mph 7 mph 84% 0.00 in 0 W/m2
05:19 27.9 °F 23.7 °F 29.99 in North 1.3 mph 7 mph 84% 0.00 in 0 W/m2
05:24 27.9 °F 23.7 °F 29.99 in NNW 1.7 mph 7 mph 84% 0.00 in 0 W/m2
05:29 27.9 °F 23.5 °F 30.00 in NNW 1.9 mph 7 mph 83.3% 0.00 in 0 W/m2
05:34 27.9 °F 23.4 °F 30.01 in NW 1.3 mph 7 mph 83% 0.00 in 0 W/m2
05:39 27.9 °F 23.4 °F 30.01 in NW 1.4 mph 6 mph 83% 0.00 in 0 W/m2
05:44 28 °F 23.5 °F 30.01 in NW 1.6 mph 6 mph 83% 0.00 in 0 W/m2
05:49 28 °F 23.5 °F 30.01 in NNW 0.8 mph 6 mph 83% 0.00 in 0 W/m2
05:54 28 °F 23.5 °F 30.01 in NNW 1.1 mph 6 mph 83% 0.00 in 0 W/m2
05:59 28 °F 23.6 °F 30.01 in NW 1.5 mph 7 mph 83.3% 0.00 in 0 W/m2
06:04 28 °F 23.5 °F 30.01 in NNW 1.8 mph 7 mph 83% 0.00 in 0 W/m2
06:09 28.1 °F 23.6 °F 30.02 in NNW 1.9 mph 9 mph 83% 0.00 in 0 W/m2
06:14 28.1 °F 23.6 °F 30.01 in NW 1.4 mph 9 mph 83% 0.00 in 0 W/m2
06:19 28.2 °F 23.7 °F 30.01 in NNW 1.8 mph 9 mph 83% 0.00 in 0 W/m2
06:24 28.2 °F 23.7 °F 30.01 in NNW 1.4 mph 9 mph 83% 0.00 in 0 W/m2
06:29 28.3 °F 23.8 °F 30.01 in NNW 0.6 mph 9 mph 83% 0.00 in 0 W/m2
06:34 28.3 °F 23.8 °F 30.01 in NNW 1.4 mph 9 mph 83% 0.00 in 0 W/m2
06:39 28.3 °F 23.6 °F 30.01 in NW 3.4 mph 10 mph 82% 0.00 in 0 W/m2
06:44 28.4 °F 23.6 °F 30.01 in NW 2.8 mph 10 mph 82% 0.00 in 0 W/m2
06:49 28.4 °F 23.7 °F 30.01 in NW 3.5 mph 10 mph 82% 0.00 in 0 W/m2
06:54 28.5 °F 23.6 °F 30.01 in NW 3.2 mph 10 mph 81.7% 0.00 in 0 W/m2
06:59 28.5 °F 23.4 °F 30.01 in NNW 2.9 mph 10 mph 81% 0.00 in 0 W/m2
07:04 28.5 °F 23.5 °F 30.00 in NNW 1.7 mph 10 mph 81% 0.00 in 0 W/m2
07:09 28.6 °F 23.5 °F 30.00 in NW 1.2 mph 10 mph 81% 0.00 in 0 W/m2
07:14 28.6 °F 23.5 °F 30.01 in NNW 1.4 mph 10 mph 81% 0.00 in 0 W/m2
07:19 28.6 °F 23.5 °F 30.01 in North 1 mph 10 mph 81% 0.00 in 5 W/m2
07:24 28.6 °F 23.5 °F 30.00 in NW 1.9 mph 10 mph 81% 0.00 in 5 W/m2
07:29 28.7 °F 23.6 °F 30.01 in NNW 0.6 mph 10 mph 81% 0.00 in 7 W/m2
07:34 28.7 °F 23.6 °F 30.01 in NW 1.5 mph 10 mph 81% 0.00 in 9 W/m2
07:39 28.7 °F 23.6 °F 30.01 in NW 0.8 mph 9 mph 81% 0.00 in 9 W/m2
07:44 28.7 °F 23.6 °F 30.01 in NW 1.7 mph 9 mph 81% 0.00 in 11 W/m2
07:49 28.7 °F 23.4 °F 30.02 in NW 1 mph 9 mph 80.4% 0.00 in 12 W/m2
07:54 28.7 °F 23.3 °F 30.02 in NNW 1.8 mph 9 mph 80% 0.00 in 18 W/m2
07:59 28.8 °F 23.4 °F 30.02 in NW 1.5 mph 9 mph 80% 0.00 in 19 W/m2
08:00 28.8 °F 23.4 °F 30.01 in Calm   9 mph 80% 0.00 in 19 W/m2
08:09 28.8 °F 23.4 °F 30.02 in NW 4.8 mph 12 mph 79.9% 0.00 in 26 W/m2
08:14 28.9 °F 23.4 °F 30.01 in NNW 3.2 mph 12 mph 79.8% 0.00 in 28 W/m2
08:19 28.9 °F 23.4 °F 30.01 in NNW 3 mph 12 mph 79.5% 0.00 in 35 W/m2
08:24 28.9 °F 23.4 °F 30.01 in NW 3.1 mph 12 mph 79.4% 0.00 in 40 W/m2
08:29 29 °F 23.3 °F 30.02 in NW 3.7 mph 12 mph 79% 0.00 in 40 W/m2
08:34 29 °F 23.3 °F 30.02 in NNW 2.6 mph 12 mph 79% 0.00 in 42 W/m2
08:39 29.1 °F 23.4 °F 30.02 in NW 5.4 mph 11 mph 79% 0.00 in 47 W/m2
08:44 29.1 °F 23.2 °F 30.01 in NW 4.5 mph 12 mph 78.4% 0.00 in 51 W/m2
08:49 29.1 °F 23.1 °F 30.02 in NW 4.2 mph 12 mph 78% 0.00 in 54 W/m2
08:54 29.1 °F 23.2 °F 30.02 in NW 2.4 mph 13 mph 78% 0.00 in 63 W/m2
08:59 29.2 °F 23.2 °F 30.02 in NW 3.3 mph 14 mph 78% 0.00 in 69 W/m2
09:04 29.2 °F 23 °F 30.02 in NW 7 mph 18 mph 77.2% 0.00 in 77 W/m2
09:09 29.2 °F 22.9 °F 30.02 in NW 3.8 mph 18 mph 77% 0.00 in 84 W/m2
09:14 29.3 °F 22.9 °F 30.03 in WNW 5.1 mph 18 mph 76.8% 0.00 in 90 W/m2
09:19 29.3 °F 22.7 °F 30.02 in NW 5.1 mph 18 mph 76% 0.00 in 91 W/m2
09:24 29.4 °F 22.7 °F 30.02 in NW 2.9 mph 18 mph 76% 0.00 in 98 W/m2
09:29 29.4 °F 22.8 °F 30.03 in NW 4.3 mph 18 mph 76% 0.00 in 105 W/m2
09:34 29.5 °F 22.7 °F 30.03 in NW 6 mph 18 mph 75.3% 0.00 in 118 W/m2
09:39 29.5 °F 22.6 °F 30.03 in NW 4.5 mph 14 mph 75% 0.00 in 127 W/m2
09:44 29.6 °F 22.7 °F 30.03 in NW 2.7 mph 14 mph 75% 0.00 in 130 W/m2
09:49 29.8 °F 22.8 °F 30.03 in NNW 4.9 mph 15 mph 75% 0.00 in 134 W/m2
09:54 29.9 °F 22.7 °F 30.03 in NW 3.8 mph 15 mph 74.1% 0.00 in 130 W/m2
09:59 30 °F 22.7 °F 30.03 in NW 1.9 mph 15 mph 74% 0.00 in 144 W/m2
10:04 30.1 °F 22.8 °F 30.03 in WNW 5.2 mph 15 mph 74% 0.00 in 160 W/m2
10:09 30.2 °F 22.7 °F 30.03 in NW 5.4 mph 12 mph 73.3% 0.00 in 165 W/m2
10:14 30.3 °F 22.8 °F 30.03 in NW 4.1 mph 12 mph 73.5% 0.00 in 176 W/m2
10:19 30.4 °F 23.1 °F 30.03 in WNW 3.3 mph 12 mph 73.9% 0.00 in 178 W/m2
10:24 30.6 °F 23.2 °F 30.03 in NW 2.1 mph 12 mph 73.6% 0.00 in 185 W/m2
10:29 30.8 °F 23.2 °F 30.02 in NW 5.2 mph 13 mph 73.1% 0.00 in 199 W/m2
10:34 30.9 °F 23.1 °F 30.02 in NW 7.3 mph 17 mph 72.5% 0.00 in 211 W/m2
10:39 30.9 °F 22.9 °F 30.02 in NW 6.4 mph 17 mph 72% 0.00 in 211 W/m2
10:44 30.9 °F 22.7 °F 30.02 in NNW 6.2 mph 17 mph 71.4% 0.00 in 216 W/m2
10:49 30.8 °F 22.2 °F 30.02 in NW 7 mph 20 mph 70% 0.00 in 216 W/m2
10:54 30.8 °F 22.1 °F 30.02 in NW 9.2 mph 20 mph 69.7% 0.00 in 221 W/m2
10:59 30.7 °F 21.8 °F 30.02 in NW 6 mph 20 mph 69.1% 0.00 in 220 W/m2
11:04 30.7 °F 21.9 °F 30.01 in NNW 3.8 mph 20 mph 69.5% 0.00 in 220 W/m2
11:09 30.9 °F 22.1 °F 30.01 in NNW 7.1 mph 13 mph 69.5% 0.00 in 260 W/m2
11:14 31 °F 22 °F 30.01 in NW 6.8 mph 13 mph 69% 0.00 in 250 W/m2
11:17 31.1 °F 22.1 °F 30.01 in NW 7 mph 13 mph 69% 0.00 in 251 W/m2
11:30 31.5 °F 22.2 °F 30.00 in NW 6 mph 15 mph 68% 0.00 in 240 W/m2
12:04 32.2 °F 22.4 °F 30.00 in NW 8 mph 15 mph 66.7% 0.00 in 240 W/m2
12:09 32.3 °F 21.9 °F 30.00 in NNW 9.7 mph 20 mph 65.2% 0.00 in 209 W/m2
12:14 31.9 °F 21.1 °F 29.99 in NW 10.1 mph 20 mph 64% 0.00 in 202 W/m2
12:19 31.6 °F 21.1 °F 29.99 in NW 8.9 mph 20 mph 64.7% 0.00 in 199 W/m2
12:24 31.5 °F 21.1 °F 29.99 in NW 6.4 mph 20 mph 64.9% 0.00 in 211 W/m2
12:29 31.6 °F 21.5 °F 29.98 in NNW 6.1 mph 20 mph 65.7% 0.00 in 262 W/m2
12:34 32 °F 22 °F 29.98 in NW 5.2 mph 20 mph 66% 0.00 in 253 W/m2
12:39 32.5 °F 22.1 °F 29.98 in NW 7.2 mph 18 mph 65.2% 0.00 in 167 W/m2
12:44 32.8 °F 21.9 °F 29.98 in NW 7.7 mph 18 mph 64% 0.00 in 288 W/m2
12:49 33 °F 22.1 °F 29.98 in NW 5.9 mph 18 mph 64% 0.00 in 105 W/m2
12:54 33.2 °F 22.5 °F 29.98 in NW 4 mph 18 mph 64.2% 0.00 in 72 W/m2
12:59 33.5 °F 22.6 °F 29.98 in NNW 6.3 mph 18 mph 63.9% 0.00 in 144 W/m2
13:04 33.5 °F 22 °F 29.97 in NNW 7.8 mph 16 mph 62.3% 0.00 in 125 W/m2
13:09 33.3 °F 21.9 °F 29.97 in NW 7.3 mph 18 mph 62.5% 0.00 in 125 W/m2
13:14 33.2 °F 21.8 °F 29.97 in NW 6.2 mph 18 mph 62.4% 0.00 in 308 W/m2
13:19 33.2 °F 21.8 °F 29.97 in NNW 5.7 mph 18 mph 62.3% 0.00 in 223 W/m2
13:24 33.3 °F 21.7 °F 29.97 in NW 7 mph 18 mph 62% 0.00 in 239 W/m2
13:29 33.3 °F 21.3 °F 29.97 in NW 9.4 mph 18 mph 61% 0.00 in 374 W/m2
13:34 33.2 °F 21.1 °F 29.97 in NW 7.5 mph 22 mph 60.7% 0.00 in 329 W/m2
13:39 33.1 °F 21.1 °F 29.97 in NW 9.2 mph 22 mph 60.9% 0.00 in 76 W/m2
13:44 33 °F 20.9 °F 29.97 in NNW 6.3 mph 22 mph 60.8% 0.00 in 501 W/m2
13:49 33 °F 20.9 °F 29.97 in NNW 7.4 mph 22 mph 60.6% 0.00 in 292 W/m2
13:54 33 °F 20.6 °F 29.97 in NNW 7.5 mph 22 mph 60% 0.00 in 153 W/m2
13:59 32.8 °F 20.5 °F 29.97 in NW 5.3 mph 22 mph 60% 0.00 in 153 W/m2
14:04 32.9 °F 20.5 °F 29.97 in NNW 8.3 mph 22 mph 60% 0.00 in 244 W/m2
14:09 32.8 °F 20.2 °F 29.97 in NW 7.4 mph 16 mph 59.2% 0.00 in 244 W/m2
14:14 32.7 °F 20.1 °F 29.96 in NW 8.7 mph 16 mph 59.4% 0.00 in 167 W/m2
14:19 32.6 °F 19.7 °F 29.97 in NNW 8.5 mph 20 mph 58.7% 0.00 in 155 W/m2
14:24 32.3 °F 19.4 °F 29.97 in NW 7.2 mph 20 mph 58.6% 0.00 in 171 W/m2
14:29 32.2 °F 19.3 °F 29.97 in NW 7.7 mph 20 mph 58.5% 0.00 in 276 W/m2
14:34 32.1 °F 19 °F 29.97 in NNW 9 mph 20 mph 58% 0.00 in 276 W/m2
14:39 32 °F 18.9 °F 29.97 in NW 6.9 mph 18 mph 58% 0.00 in 142 W/m2
14:44 31.8 °F 18.7 °F 29.97 in NW 9.4 mph 18 mph 58% 0.00 in 149 W/m2
14:49 31.6 °F 18.3 °F 29.97 in NW 10.9 mph 18 mph 57.4% 0.00 in 107 W/m2
14:54 31.4 °F 18.2 °F 29.97 in NW 8.9 mph 20 mph 57.6% 0.00 in 255 W/m2
14:59 31.2 °F 18.1 °F 29.97 in NW 6.7 mph 20 mph 57.9% 0.00 in 279 W/m2
15:04 31.1 °F 18 °F 29.97 in WNW 7 mph 20 mph 58% 0.00 in 35 W/m2
15:09 31 °F 17.9 °F 29.98 in WNW 9.4 mph 17 mph 58% 0.00 in 33 W/m2
15:14 30.8 °F 17.8 °F 29.98 in NW 6 mph 19 mph 58% 0.00 in 32 W/m2
15:19 30.7 °F 17.7 °F 29.98 in NW 9 mph 19 mph 58% 0.00 in 30 W/m2
15:24 30.6 °F 17.6 °F 29.98 in NW 8.5 mph 19 mph 58% 0.00 in 30 W/m2
15:29 30.5 °F 17.1 °F 29.98 in NW 8.5 mph 19 mph 56.9% 0.00 in 28 W/m2
15:34 30.3 °F 16.5 °F 29.99 in NNW 10 mph 24 mph 56% 0.00 in 26 W/m2
15:39 30 °F 16.3 °F 29.98 in NNW 8.7 mph 24 mph 56.2% 0.00 in 26 W/m2
15:44 29.8 °F 16.5 °F 29.99 in NNW 7.4 mph 24 mph 57.2% 0.00 in 25 W/m2
15:49 29.6 °F 16.2 °F 30.00 in NW 9.1 mph 24 mph 57% 0.00 in 25 W/m2
15:54 29.3 °F 16.1 °F 29.99 in NW 6.2 mph 24 mph 57.1% 0.00 in 23 W/m2
15:59 29.2 °F 16.1 °F 30.00 in NW 6.7 mph 24 mph 57.4% 0.00 in 21 W/m2
16:04 28.9 °F 15.6 °F 29.99 in NW 9 mph 9 mph 57% 0.00 in 19 W/m2
16:09 28.9 °F 15.7 °F 30.00 in NW 5.6 mph 12 mph 57.4% 0.00 in 19 W/m2
16:14 28.7 °F 15.8 °F 30.00 in NW 6.7 mph 15 mph 58% 0.00 in 19 W/m2
16:19 28.5 °F 15.9 °F 30.00 in NW 7.6 mph 18 mph 58.5% 0.00 in 18 W/m2
16:24 28.2 °F 15.2 °F 30.00 in NW 8.8 mph 18 mph 57.5% 0.00 in 16 W/m2
16:29 27.9 °F 14.6 °F 30.00 in NW 8.2 mph 20 mph 57% 0.00 in 16 W/m2
16:34 27.6 °F 14.7 °F 30.01 in NW 5.1 mph 20 mph 57.9% 0.00 in 14 W/m2
16:39 27.3 °F 14.8 °F 30.01 in NW 8.4 mph 19 mph 58.6% 0.00 in 12 W/m2
16:44 27.1 °F 14.6 °F 30.01 in NW 8.5 mph 19 mph 58.8% 0.00 in 11 W/m2
16:49 26.9 °F 14.6 °F 30.02 in NW 5.6 mph 19 mph 59.4% 0.00 in 9 W/m2
16:54 26.7 °F 14.3 °F 30.02 in NW 6.8 mph 19 mph 59.1% 0.00 in 7 W/m2
16:59 26.4 °F 14 °F 30.02 in NW 9.3 mph 21 mph 59% 0.00 in 5 W/m2
17:04 26.2 °F 13.8 °F 30.03 in NW 6.9 mph 21 mph 59% 0.00 in 0 W/m2
17:09 25.9 °F 13.6 °F 30.03 in NW 4.4 mph 18 mph 59% 0.00 in 0 W/m2
17:14 25.7 °F 13.4 °F 30.03 in NW 4.6 mph 18 mph 59.1% 0.00 in 0 W/m2
17:19 25.4 °F 13.5 °F 30.03 in NW 4.9 mph 18 mph 60% 0.00 in 0 W/m2
17:24 25.1 °F 12.9 °F 30.04 in NW 6.1 mph 18 mph 59.2% 0.00 in 0 W/m2
17:29 24.8 °F 12.3 °F 30.04 in NW 8.7 mph 18 mph 58.5% 0.00 in 0 W/m2
17:34 24.4 °F 12.1 °F 30.04 in WNW 6.3 mph 18 mph 58.8% 0.00 in 0 W/m2
17:39 24.2 °F 11.9 °F 30.04 in NW 4.2 mph 15 mph 59% 0.00 in 0 W/m2
17:44 23.9 °F 11.8 °F 30.05 in NW 5.7 mph 15 mph 59.4% 0.00 in 0 W/m2
17:49 23.7 °F 11.6 °F 30.05 in NW 10.8 mph 20 mph 59.3% 0.00 in 0 W/m2
17:54 23.4 °F 11.2 °F 30.05 in NW 10 mph 20 mph 59% 0.00 in 0 W/m2
17:59 23.1 °F 10.9 °F 30.05 in NW 9.5 mph 23 mph 59% 0.00 in 0 W/m2
18:04 22.9 °F 10.8 °F 30.06 in NW 10.8 mph 23 mph 59% 0.00 in 0 W/m2
18:09 22.7 °F 10.7 °F 30.06 in NW 6 mph 17 mph 59.3% 0.00 in 0 W/m2
18:14 22.5 °F 10.7 °F 30.06 in NW 7.2 mph 17 mph 60% 0.00 in 0 W/m2
18:19 22.4 °F 10.6 °F 30.06 in NW 5.6 mph 17 mph 60% 0.00 in 0 W/m2
18:24 22.2 °F 10.7 °F 30.06 in NW 4.1 mph 17 mph 60.5% 0.00 in 0 W/m2
18:29 22.1 °F 10.7 °F 30.06 in NW 5.7 mph 17 mph 61% 0.00 in 0 W/m2
18:34 22 °F 10.6 °F 30.06 in NW 8.2 mph 17 mph 61% 0.00 in 0 W/m2
18:39 21.9 °F 10.5 °F 30.07 in WNW 6.7 mph 14 mph 61% 0.00 in 0 W/m2
18:44 21.8 °F 10.4 °F 30.07 in NW 8.5 mph 25 mph 61% 0.00 in 0 W/m2
18:49 21.6 °F 9.9 °F 30.08 in NW 11.3 mph 25 mph 60% 0.00 in 0 W/m2
18:54 21.5 °F 9.8 °F 30.08 in NW 9.8 mph 25 mph 60% 0.00 in 0 W/m2
18:59 21.3 °F 9.6 °F 30.08 in NW 10.1 mph 25 mph 60% 0.00 in 0 W/m2
19:04 21.2 °F 9.5 °F 30.08 in NW 9 mph 25 mph 60% 0.00 in 0 W/m2
19:09 21 °F 9.3 °F 30.08 in NW 8 mph 18 mph 60% 0.00 in 0 W/m2
19:14 20.8 °F 9.1 °F 30.09 in NW 8.3 mph 18 mph 60% 0.00 in 0 W/m2
19:19 20.7 °F 9 °F 30.09 in NW 6.2 mph 18 mph 60% 0.00 in 0 W/m2
19:24 20.6 °F 9.1 °F 30.09 in NW 5.9 mph 18 mph 60.6% 0.00 in 0 W/m2
19:29 20.4 °F 9.1 °F 30.09 in NNW 6 mph 18 mph 61% 0.00 in 0 W/m2
19:34 20.3 °F 9 °F 30.08 in NW 8.6 mph 20 mph 61% 0.00 in 0 W/m2
19:39 20.3 °F 9 °F 30.08 in NW 4.9 mph 20 mph 61% 0.00 in 0 W/m2
19:44 20.2 °F 8.9 °F 30.08 in NW 6.9 mph 20 mph 61% 0.00 in 0 W/m2
19:49 20 °F 8.8 °F 30.08 in NW 6.4 mph 20 mph 61% 0.00 in 0 W/m2
19:54 20 °F 8.7 °F 30.08 in NW 9.6 mph 20 mph 61% 0.00 in 0 W/m2
19:59 20 °F 8.4 °F 30.08 in NW 8.2 mph 20 mph 60.2% 0.00 in 0 W/m2
20:04 20 °F 8.4 °F 30.08 in NW 6 mph 6 mph 60% 0.00 in 0 W/m2
20:09 20 °F 8.6 °F 30.08 in NNW 4.8 mph 13 mph 60.7% 0.00 in 0 W/m2
20:14 19.9 °F 8.6 °F 30.08 in NW 4.9 mph 13 mph 61% 0.00 in 0 W/m2
20:19 19.8 °F 8.5 °F 30.08 in NW 5.8 mph 16 mph 60.8% 0.00 in 0 W/m2
20:24 19.8 °F 8.4 °F 30.08 in NW 5.5 mph 16 mph 60.7% 0.00 in 0 W/m2
20:29 19.7 °F 8.4 °F 30.08 in NW 7.9 mph 20 mph 61% 0.00 in 0 W/m2
20:34 19.7 °F 8.4 °F 30.08 in NW 5 mph 20 mph 61% 0.00 in 0 W/m2
20:39 19.6 °F 8.4 °F 30.08 in NW 6.6 mph 14 mph 61% 0.00 in 0 W/m2
20:44 19.6 °F 8.5 °F 30.08 in NW 6.6 mph 18 mph 61.5% 0.00 in 0 W/m2
20:49 19.6 °F 8.7 °F 30.08 in NW 10.2 mph 22 mph 62% 0.00 in 0 W/m2
20:54 19.5 °F 8.6 °F 30.07 in NW 7.7 mph 22 mph 62% 0.00 in 0 W/m2
20:59 19.5 °F 8.6 °F 30.07 in NW 4.7 mph 22 mph 62% 0.00 in 0 W/m2
21:04 19.5 °F 8.7 °F 30.07 in NW 6.1 mph 22 mph 62.3% 0.00 in 0 W/m2
21:09 19.4 °F 8.9 °F 30.07 in NW 7 mph 16 mph 63% 0.00 in 0 W/m2
21:14 19.4 °F 8.9 °F 30.06 in NW 4.3 mph 16 mph 63% 0.00 in 0 W/m2
21:19 19.4 °F 8.8 °F 30.06 in NW 4.9 mph 16 mph 63% 0.00 in 0 W/m2
21:24 19.3 °F 8.8 °F 30.07 in NW 4.4 mph 16 mph 63% 0.00 in 0 W/m2
21:29 19.2 °F 8.8 °F 30.06 in NW 1.5 mph 16 mph 63.1% 0.00 in 0 W/m2
21:34 19.1 °F 9 °F 30.07 in NW 5.2 mph 17 mph 64% 0.00 in 0 W/m2
21:39 19 °F 8.9 °F 30.06 in NW 7.4 mph 17 mph 64% 0.00 in 0 W/m2
21:44 19 °F 8.9 °F 30.06 in NNW 6.6 mph 17 mph 64% 0.00 in 0 W/m2
21:49 19 °F 8.8 °F 30.06 in NNW 5.2 mph 17 mph 64% 0.00 in 0 W/m2
21:54 19 °F 8.8 °F 30.06 in NNW 5.5 mph 17 mph 64% 0.00 in 0 W/m2
21:59 19 °F 8.6 °F 30.06 in NNW 4.1 mph 17 mph 63.4% 0.00 in 0 W/m2
22:04 18.9 °F 8.4 °F 30.06 in NW 10.6 mph 21 mph 63% 0.00 in 0 W/m2
22:09 18.9 °F 8.3 °F 30.06 in NW 9.7 mph 21 mph 62.5% 0.00 in 0 W/m2
22:14 18.9 °F 8.1 °F 30.06 in NNW 6.4 mph 21 mph 62% 0.00 in 0 W/m2
22:19 18.9 °F 8.1 °F 30.06 in NW 9.9 mph 22 mph 62% 0.00 in 0 W/m2
22:24 18.8 °F 7.9 °F 30.06 in NW 10.5 mph 22 mph 61.8% 0.00 in 0 W/m2
22:29 18.8 °F 7.9 °F 30.06 in NNW 8.3 mph 22 mph 61.8% 0.00 in 0 W/m2
22:34 18.7 °F 7.5 °F 30.06 in NNW 10.9 mph 22 mph 61% 0.00 in 0 W/m2
22:39 18.6 °F 7.4 °F 30.06 in NW 9.5 mph 26 mph 61% 0.00 in 0 W/m2
22:44 18.5 °F 7.3 °F 30.07 in NW 11 mph 26 mph 60.9% 0.00 in 0 W/m2
22:49 18.4 °F 6.8 °F 30.07 in NW 10.8 mph 26 mph 60% 0.00 in 0 W/m2
22:54 18.2 °F 6.5 °F 30.07 in NW 8.7 mph 26 mph 59.6% 0.00 in 0 W/m2
22:59 18.1 °F 6.2 °F 30.06 in NW 11.1 mph 26 mph 59% 0.00 in 0 W/m2
23:04 17.9 °F 6 °F 30.06 in NW 14 mph 14 mph 59% 0.00 in 0 W/m2
23:09 17.8 °F 6 °F 30.06 in NNW 9.9 mph 16 mph 59.2% 0.00 in 0 W/m2
23:14 17.7 °F 5.8 °F 30.06 in NW 11.2 mph 22 mph 59% 0.00 in 0 W/m2
23:19 17.6 °F 5.7 °F 30.06 in NW 8.3 mph 22 mph 59% 0.00 in 0 W/m2
23:24 17.5 °F 5.6 °F 30.06 in NW 7.3 mph 22 mph 59.1% 0.00 in 0 W/m2
23:29 17.3 °F 5.8 °F 30.06 in NNW 7.4 mph 22 mph 60% 0.00 in 0 W/m2
23:34 17.2 °F 5.8 °F 30.06 in NW 8.8 mph 22 mph 60% 0.00 in 0 W/m2
23:39 17.1 °F 5.7 °F 30.06 in NW 8 mph 21 mph 60% 0.00 in 0 W/m2
23:44 17.1 °F 5.6 °F 30.06 in NW 9.9 mph 24 mph 60% 0.00 in 0 W/m2
23:49 17 °F 5.5 °F 30.06 in NNW 7.5 mph 24 mph 60% 0.00 in 0 W/m2
23:54 16.9 °F 5.4 °F 30.06 in NW 8.7 mph 24 mph 60% 0.00 in 0 W/m2
23:59 16.9 °F 5.4 °F 30.05 in NW 7.8 mph 24 mph 60% 0.00 in 0 W/m2
Hartford County Weather
Compliments of Weather Underground - 2 mb